createdAt,value
2018-03-17T00:01:56.904Z,8.65
2018-03-17T00:04:24.401Z,6.45
2018-03-17T00:06:51.914Z,8.50
2018-03-17T00:09:20.173Z,6.30
2018-03-17T00:11:47.661Z,12.98
2018-03-17T00:14:15.159Z,11.75
2018-03-17T00:16:42.658Z,10.13
2018-03-17T00:19:10.939Z,7.57
2018-03-17T00:21:39.425Z,9.25
2018-03-17T00:24:07.683Z,8.85
2018-03-17T00:26:35.196Z,8.98
2018-03-17T00:29:02.687Z,7.75
2018-03-17T00:31:30.207Z,9.45
2018-03-17T00:33:57.691Z,9.35
2018-03-17T00:36:25.179Z,14.80
2018-03-17T00:38:52.691Z,10.02
2018-03-17T00:41:20.188Z,10.52
2018-03-17T00:43:47.712Z,7.95
2018-03-17T00:46:15.962Z,9.73
2018-03-17T00:48:44.210Z,9.85
2018-03-17T00:51:12.741Z,7.55
2018-03-17T00:53:40.224Z,7.97
2018-03-17T00:56:07.743Z,11.45
2018-03-17T00:58:35.235Z,11.32
2018-03-17T01:01:02.718Z,6.72
2018-03-17T01:03:30.227Z,9.35
2018-03-17T01:05:57.720Z,8.48
2018-03-17T01:08:25.223Z,13.25
2018-03-17T01:10:53.476Z,14.27
2018-03-17T01:13:20.963Z,13.23
2018-03-17T01:15:49.236Z,12.77
2018-03-17T01:18:17.494Z,9.10
2018-03-17T01:20:45.003Z,12.80
2018-03-17T01:23:12.522Z,11.27
2018-03-17T01:25:40.781Z,7.68
2018-03-17T01:28:08.286Z,7.87
2018-03-17T01:30:35.794Z,11.50
2018-03-17T01:33:03.299Z,10.40
2018-03-17T01:35:30.783Z,8.57
2018-03-17T01:37:58.278Z,5.60
2018-03-17T01:40:25.788Z,6.95
2018-03-17T01:42:53.297Z,9.82
2018-03-17T01:45:21.130Z,12.37
2018-03-17T01:47:48.619Z,8.95
2018-03-17T01:50:16.107Z,11.07
2018-03-17T01:52:44.599Z,8.77
2018-03-17T01:55:12.851Z,8.60
2018-03-17T01:57:40.351Z,7.93
2018-03-17T02:00:07.847Z,12.75
2018-03-17T02:02:35.363Z,10.93
2018-03-17T02:05:02.847Z,11.18
2018-03-17T02:07:30.335Z,12.25
2018-03-17T02:09:57.844Z,13.32
2018-03-17T02:12:25.335Z,11.65
2018-03-17T02:14:52.847Z,6.07
2018-03-17T02:17:21.117Z,11.82
2018-03-17T02:19:49.391Z,9.70
2018-03-17T02:22:17.667Z,13.95
2018-03-17T02:24:45.939Z,13.20
2018-03-17T02:27:14.224Z,12.70
2018-03-17T02:29:42.479Z,14.43
2018-03-17T02:32:09.969Z,11.52
2018-03-17T02:34:38.240Z,8.88
2018-03-17T02:37:06.511Z,17.70
2018-03-17T02:39:34.787Z,15.43
2018-03-17T02:42:03.060Z,11.50
2018-03-17T02:44:30.567Z,14.20
2018-03-17T02:46:58.085Z,22.75
2018-03-17T02:49:26.348Z,17.77
2018-03-17T02:51:53.896Z,20.02
2018-03-17T02:54:21.387Z,28.33
2018-03-17T02:56:49.641Z,26.35
2018-03-17T02:59:17.164Z,23.80
2018-03-17T03:01:44.876Z,32.10
2018-03-17T03:04:12.397Z,19.37
2018-03-17T03:06:39.884Z,21.30
2018-03-17T03:09:07.382Z,18.45
2018-03-17T03:11:34.897Z,26.55
2018-03-17T03:14:02.379Z,27.92
2018-03-17T03:16:30.664Z,25.45
2018-03-17T03:18:58.923Z,30.98
2018-03-17T03:21:26.417Z,25.80
2018-03-17T03:23:53.922Z,24.33
2018-03-17T03:26:21.420Z,32.65
2018-03-17T03:28:49.699Z,26.35
2018-03-17T03:31:17.960Z,30.55
2018-03-17T03:33:45.452Z,28.50
2018-03-17T03:36:12.961Z,37.22
2018-03-17T03:38:40.460Z,30.95
2018-03-17T03:41:08.733Z,57.17
2018-03-17T03:43:36.465Z,34.75
2018-03-17T03:46:03.971Z,34.65
2018-03-17T03:48:31.471Z,40.70
2018-03-17T03:50:59.211Z,52.40
2018-03-17T03:53:27.038Z,61.63
2018-03-17T03:55:55.303Z,46.37
2018-03-17T03:58:23.574Z,42.20
2018-03-17T04:00:51.084Z,152.68
2018-03-17T04:03:18.578Z,194.40
2018-03-17T04:05:46.098Z,39.60
2018-03-17T04:08:13.604Z,61.75
2018-03-17T04:10:41.099Z,40.60
2018-03-17T04:13:09.367Z,90.00
2018-03-17T04:15:37.631Z,136.68
2018-03-17T04:18:05.144Z,114.30
2018-03-17T04:20:32.673Z,73.90
2018-03-17T04:23:00.939Z,39.67
2018-03-17T04:25:29.222Z,105.97
2018-03-17T04:27:57.485Z,54.17
2018-03-17T04:30:24.995Z,89.82
2018-03-17T04:32:52.492Z,58.00
2018-03-17T04:35:19.979Z,41.83
2018-03-17T04:37:47.495Z,43.22
2018-03-17T04:40:14.982Z,53.25
2018-03-17T04:42:42.495Z,61.80
2018-03-17T04:45:09.983Z,48.85
2018-03-17T04:47:37.481Z,192.60
2018-03-17T04:50:05.810Z,69.70
2018-03-17T04:52:33.305Z,63.15
2018-03-17T04:55:01.584Z,151.73
2018-03-17T04:57:29.844Z,305.55
2018-03-17T04:59:57.358Z,217.05
2018-03-17T05:02:24.863Z,109.37
2018-03-17T05:04:52.350Z,78.80
2018-03-17T05:07:20.875Z,88.12
2018-03-17T05:09:48.372Z,78.07
2018-03-17T05:12:16.632Z,119.72
2018-03-17T05:14:44.143Z,103.57
2018-03-17T05:17:11.635Z,56.85
2018-03-17T05:19:39.150Z,64.85
2018-03-17T05:22:06.647Z,79.93
2018-03-17T05:24:34.148Z,52.62
2018-03-17T05:27:02.429Z,185.40
2018-03-17T05:29:29.931Z,259.67
2018-03-17T05:31:57.448Z,255.75
2018-03-17T05:34:25.704Z,378.40
2018-03-17T05:36:53.213Z,234.65
2018-03-17T05:39:20.735Z,295.98
2018-03-17T05:41:48.231Z,159.37
2018-03-17T05:44:15.788Z,190.82
2018-03-17T05:46:43.279Z,104.82
2018-03-17T05:49:10.792Z,110.95
2018-03-17T05:51:39.063Z,54.63
2018-03-17T05:54:07.325Z,193.30
2018-03-17T05:56:35.620Z,96.30
2018-03-17T05:59:03.875Z,301.33
2018-03-17T06:01:31.376Z,235.02
2018-03-17T06:03:58.900Z,71.20
2018-03-17T06:06:26.392Z,68.18
2018-03-17T06:08:53.927Z,260.55
2018-03-17T06:11:22.195Z,93.62
2018-03-17T06:13:49.694Z,146.18
2018-03-17T06:16:17.211Z,253.07
2018-03-17T06:18:44.712Z,246.35
2018-03-17T06:21:12.228Z,269.85
2018-03-17T06:23:39.742Z,167.37
2018-03-17T06:26:07.244Z,215.10
2018-03-17T06:28:34.760Z,76.72
2018-03-17T06:31:02.284Z,196.82
2018-03-17T06:33:31.427Z,122.30
2018-03-17T06:35:58.954Z,129.50
2018-03-17T06:38:26.448Z,61.20
2018-03-17T06:40:53.974Z,103.25
2018-03-17T06:43:21.476Z,133.10
2018-03-17T06:45:48.988Z,210.65
2018-03-17T06:48:16.481Z,56.50
2018-03-17T06:50:44.020Z,61.58
2018-03-17T06:53:11.540Z,140.07
2018-03-17T06:55:39.040Z,82.28
2018-03-17T06:58:06.568Z,215.18
2018-03-17T07:00:34.839Z,71.82
2018-03-17T07:03:02.340Z,117.75
2018-03-17T07:05:29.852Z,88.50
2018-03-17T07:07:57.359Z,79.65
2018-03-17T07:10:24.894Z,77.07
2018-03-17T07:12:53.162Z,76.82
2018-03-17T07:15:21.428Z,75.55
2018-03-17T07:17:48.947Z,80.20
2018-03-17T07:20:16.590Z,63.90
2018-03-17T07:22:44.142Z,71.72
2018-03-17T07:25:11.840Z,63.90
2018-03-17T07:27:39.418Z,67.43
2018-03-17T07:30:06.940Z,67.95
2018-03-17T07:32:34.440Z,62.88
2018-03-17T07:35:01.953Z,59.35
2018-03-17T07:37:29.452Z,69.90
2018-03-17T07:39:56.959Z,67.10
2018-03-17T07:42:25.240Z,63.00
2018-03-17T07:44:52.772Z,183.25
2018-03-17T07:47:20.289Z,70.80
2018-03-17T07:49:48.648Z,73.90
2018-03-17T07:52:16.152Z,64.05
2018-03-17T07:54:43.675Z,83.10
2018-03-17T07:57:11.174Z,102.43
2018-03-17T07:59:38.704Z,73.82
2018-03-17T08:02:06.212Z,66.43
2018-03-17T08:04:33.708Z,59.40
2018-03-17T08:07:01.237Z,60.40
2018-03-17T08:09:29.492Z,57.80
2018-03-17T08:11:57.009Z,64.22
2018-03-17T08:14:24.525Z,69.00
2018-03-17T08:16:52.048Z,68.93
2018-03-17T08:19:19.587Z,74.55
2018-03-17T08:21:47.113Z,65.57
2018-03-17T08:24:15.400Z,71.95
2018-03-17T08:26:43.685Z,63.45
2018-03-17T08:29:11.203Z,57.33
2018-03-17T08:31:38.723Z,72.45
2018-03-17T08:34:06.252Z,62.33
2018-03-17T08:36:34.540Z,64.93
2018-03-17T08:39:02.804Z,60.85
2018-03-17T08:41:31.076Z,56.37
2018-03-17T08:43:59.369Z,62.15
2018-03-17T08:46:26.868Z,57.58
2018-03-17T08:48:54.384Z,64.53
2018-03-17T08:51:22.648Z,53.75
2018-03-17T08:53:50.908Z,62.83
2018-03-17T08:56:18.493Z,57.17
2018-03-17T08:58:46.774Z,63.05
2018-03-17T09:01:15.056Z,58.45
2018-03-17T09:03:43.327Z,58.60
2018-03-17T09:06:11.592Z,64.65
2018-03-17T09:08:39.104Z,55.88
2018-03-17T09:11:06.600Z,60.42
2018-03-17T09:13:34.126Z,62.13
2018-03-17T09:16:01.630Z,54.88
2018-03-17T09:18:29.123Z,63.50
2018-03-17T09:20:56.661Z,56.20
2018-03-17T09:23:24.915Z,63.65
2018-03-17T09:25:52.432Z,57.70
2018-03-17T09:28:19.929Z,67.15
2018-03-17T09:30:47.451Z,60.83
2018-03-17T09:33:14.966Z,57.28
2018-03-17T09:35:42.465Z,66.22
2018-03-17T09:38:09.976Z,65.43
2018-03-17T09:40:37.479Z,53.38
2018-03-17T09:43:04.968Z,63.90
2018-03-17T09:45:32.489Z,63.40
2018-03-17T09:48:00.045Z,59.53
2018-03-17T09:50:27.575Z,59.15
2018-03-17T09:52:55.101Z,54.22
2018-03-17T09:55:22.595Z,58.65
2018-03-17T09:57:50.870Z,64.65
2018-03-17T10:00:18.378Z,58.75
2018-03-17T10:02:45.918Z,56.55
2018-03-17T10:05:14.232Z,48.92
2018-03-17T10:07:41.741Z,50.90
2018-03-17T10:10:10.015Z,55.12
2018-03-17T10:12:37.537Z,52.45
2018-03-17T10:15:05.056Z,60.40
2018-03-17T10:17:32.552Z,57.67
2018-03-17T10:20:00.047Z,58.05
2018-03-17T10:22:27.555Z,60.88
2018-03-17T10:24:56.014Z,55.15
2018-03-17T10:27:23.584Z,50.38
2018-03-17T10:29:51.092Z,53.85
2018-03-17T10:32:18.598Z,58.47
2018-03-17T10:34:46.124Z,62.17
2018-03-17T10:37:13.625Z,58.33
2018-03-17T10:39:41.145Z,57.35
2018-03-17T10:42:08.657Z,59.75
2018-03-17T10:44:36.174Z,60.60
2018-03-17T10:47:04.469Z,51.60
2018-03-17T10:49:32.728Z,59.13
2018-03-17T10:52:01.020Z,54.70
2018-03-17T10:54:28.520Z,60.42
2018-03-17T10:56:56.022Z,55.83
2018-03-17T10:59:24.308Z,65.12
2018-03-17T11:01:52.563Z,60.25
2018-03-17T11:04:20.079Z,55.50
2018-03-17T11:06:47.576Z,56.72
2018-03-17T11:09:15.067Z,61.92
2018-03-17T11:11:44.307Z,68.87
2018-03-17T11:14:11.811Z,59.70
2018-03-17T11:16:40.092Z,59.72
2018-03-17T11:19:08.359Z,58.87
2018-03-17T11:21:35.960Z,52.13
2018-03-17T11:24:03.472Z,61.95
2018-03-17T11:26:30.971Z,56.45
2018-03-17T11:28:58.497Z,65.65
2018-03-17T11:31:26.003Z,54.10
2018-03-17T11:33:53.575Z,55.20
2018-03-17T11:36:21.843Z,54.20
2018-03-17T11:38:49.343Z,58.75
2018-03-17T11:41:16.872Z,50.28
2018-03-17T11:43:44.355Z,53.03
2018-03-17T11:46:11.841Z,58.45
2018-03-17T11:48:40.333Z,55.65
2018-03-17T11:51:08.591Z,49.75
2018-03-17T11:53:36.108Z,52.38
2018-03-17T11:56:03.611Z,49.28
2018-03-17T11:58:31.104Z,49.95
2018-03-17T12:00:58.629Z,47.33
2018-03-17T12:03:26.234Z,55.75
2018-03-17T12:05:53.756Z,46.53
2018-03-17T12:08:22.019Z,53.10
2018-03-17T12:10:49.518Z,44.60
2018-03-17T12:13:17.040Z,51.60
2018-03-17T12:15:44.547Z,45.97
2018-03-17T12:18:12.069Z,48.85
2018-03-17T12:20:39.557Z,49.20
2018-03-17T12:23:07.054Z,43.53
2018-03-17T12:25:34.580Z,50.75
2018-03-17T12:28:02.083Z,44.35
2018-03-17T12:30:29.608Z,48.55
2018-03-17T12:32:57.113Z,51.95
2018-03-17T12:35:24.626Z,47.50
2018-03-17T12:37:52.145Z,46.88
2018-03-17T12:40:21.709Z,45.25
2018-03-17T12:42:48.733Z,49.05
2018-03-17T12:45:16.241Z,47.78
2018-03-17T12:47:43.736Z,50.58
2018-03-17T12:50:12.015Z,46.58
2018-03-17T12:52:39.540Z,56.95
2018-03-17T12:55:07.061Z,52.45
2018-03-17T12:57:34.557Z,53.22
2018-03-17T13:00:02.074Z,54.80
2018-03-17T13:02:29.591Z,44.65
2018-03-17T13:04:57.871Z,44.97
2018-03-17T13:07:26.160Z,34.15
2018-03-17T13:09:54.453Z,46.10
2018-03-17T13:12:21.944Z,44.15
2018-03-17T13:14:49.458Z,38.72
2018-03-17T13:17:16.962Z,49.70
2018-03-17T13:19:44.477Z,46.05
2018-03-17T13:22:12.744Z,43.17
2018-03-17T13:24:41.027Z,46.35
2018-03-17T13:27:21.180Z,47.95
2018-03-17T13:29:48.685Z,40.88
2018-03-17T13:32:28.099Z,40.65
2018-03-17T13:34:55.616Z,47.10
2018-03-17T13:37:31.846Z,41.60
2018-03-17T13:39:59.386Z,45.50
2018-03-17T13:42:26.884Z,40.85
2018-03-17T13:44:54.385Z,45.33
2018-03-17T13:47:22.662Z,42.58
2018-03-17T13:49:50.932Z,41.88
2018-03-17T13:52:19.216Z,50.70
2018-03-17T13:54:47.473Z,46.45
2018-03-17T13:57:14.978Z,41.53
2018-03-17T13:59:42.499Z,41.80
2018-03-17T14:02:10.780Z,40.85
2018-03-17T14:04:39.085Z,46.50
2018-03-17T14:07:06.593Z,46.42
2018-03-17T14:09:34.090Z,45.50
2018-03-17T14:12:01.616Z,46.97
2018-03-17T14:14:29.128Z,49.35
2018-03-17T14:16:56.665Z,41.03
2018-03-17T14:19:24.161Z,45.05
2018-03-17T14:21:51.663Z,50.88
2018-03-17T14:24:19.188Z,44.90
2018-03-17T14:26:46.712Z,34.20
2018-03-17T14:29:15.014Z,44.38
2018-03-17T14:31:42.512Z,41.50
2018-03-17T14:34:10.016Z,33.83
2018-03-17T14:36:37.557Z,44.53
2018-03-17T14:39:05.898Z,46.92
2018-03-17T14:41:33.439Z,43.15
2018-03-17T14:44:00.940Z,52.05
2018-03-17T14:46:28.445Z,44.20
2018-03-17T14:48:55.977Z,45.17
2018-03-17T14:51:24.240Z,45.38
2018-03-17T14:53:51.760Z,43.22
2018-03-17T14:56:19.255Z,44.38
2018-03-17T14:58:46.765Z,48.28
2018-03-17T15:01:14.280Z,54.42
2018-03-17T15:03:42.547Z,57.50
2018-03-17T15:06:10.088Z,40.20
2018-03-17T15:08:37.580Z,53.90
2018-03-17T15:11:05.853Z,49.10
2018-03-17T15:13:34.146Z,48.80
2018-03-17T15:16:01.661Z,46.22
2018-03-17T15:18:29.181Z,46.83
2018-03-17T15:20:56.694Z,48.13
2018-03-17T15:23:24.204Z,57.35
2018-03-17T15:25:51.735Z,53.35
2018-03-17T15:28:20.008Z,46.78
2018-03-17T15:30:48.301Z,49.03
2018-03-17T15:33:16.555Z,51.83
2018-03-17T15:35:44.057Z,48.40
2018-03-17T15:38:11.572Z,48.78
2018-03-17T15:40:39.068Z,52.47
2018-03-17T15:43:06.622Z,39.38
2018-03-17T15:45:34.163Z,48.60
2018-03-17T15:48:02.444Z,46.13
2018-03-17T15:50:29.975Z,56.47
2018-03-17T15:52:57.614Z,56.00
2018-03-17T15:55:25.143Z,50.38
2018-03-17T15:57:52.685Z,55.03
2018-03-17T16:00:20.959Z,48.67
2018-03-17T16:02:49.264Z,44.17
2018-03-17T16:05:16.766Z,46.67
2018-03-17T16:07:44.309Z,57.20
2018-03-17T16:10:11.816Z,50.90
2018-03-17T16:12:40.117Z,43.45
2018-03-17T16:15:07.651Z,45.78
2018-03-17T16:17:35.916Z,48.47
2018-03-17T16:20:03.448Z,45.28
2018-03-17T16:22:31.032Z,46.88
2018-03-17T16:24:58.659Z,48.90
2018-03-17T16:27:26.190Z,42.83
2018-03-17T16:29:53.693Z,47.62
2018-03-17T16:32:21.258Z,46.60
2018-03-17T16:34:48.744Z,48.03
2018-03-17T16:37:16.246Z,47.08
2018-03-17T16:39:43.782Z,51.72
2018-03-17T16:42:12.063Z,48.00
2018-03-17T16:44:40.392Z,43.72
2018-03-17T16:47:07.913Z,51.95
2018-03-17T16:49:35.430Z,46.28
2018-03-17T16:52:02.965Z,49.92
2018-03-17T16:54:30.552Z,45.83
2018-03-17T16:56:59.131Z,46.35
2018-03-17T16:59:26.671Z,43.95
2018-03-17T17:01:54.243Z,40.38
2018-03-17T17:04:21.846Z,46.50
2018-03-17T17:06:50.137Z,44.90
2018-03-17T17:09:17.879Z,52.28
2018-03-17T17:11:46.153Z,40.00
2018-03-17T17:14:13.691Z,39.38
2018-03-17T17:16:41.233Z,48.05
2018-03-17T17:19:08.740Z,41.88
2018-03-17T17:21:37.027Z,39.83
2018-03-17T17:24:04.540Z,39.90
2018-03-17T17:26:32.048Z,48.28
2018-03-17T17:28:59.583Z,44.65
2018-03-17T17:31:27.094Z,43.78
2018-03-17T17:33:54.637Z,43.42
2018-03-17T17:36:22.151Z,43.28
2018-03-17T17:38:49.661Z,45.42
2018-03-17T17:41:17.188Z,40.97
2018-03-17T17:43:45.454Z,44.40
2018-03-17T17:46:12.977Z,42.65
2018-03-17T17:48:40.493Z,44.88
2018-03-17T17:51:08.755Z,53.25
2018-03-17T17:53:36.269Z,42.20
2018-03-17T17:56:03.781Z,47.30
2018-03-17T17:58:32.067Z,37.80
2018-03-17T18:01:00.327Z,45.22
2018-03-17T18:03:27.825Z,41.80
2018-03-17T18:05:55.360Z,41.03
2018-03-17T18:08:23.627Z,34.00
2018-03-17T18:10:51.916Z,41.55
2018-03-17T18:13:20.224Z,36.80
2018-03-17T18:15:47.721Z,40.78
2018-03-17T18:18:15.248Z,38.08
2018-03-17T18:20:42.784Z,51.47
2018-03-17T18:23:10.304Z,38.35
2018-03-17T18:25:37.875Z,34.92
2018-03-17T18:28:05.372Z,35.17
2018-03-17T18:30:32.905Z,31.75
2018-03-17T18:33:01.215Z,38.25
2018-03-17T18:35:28.752Z,35.42
2018-03-17T18:37:57.018Z,42.28
2018-03-17T18:40:25.295Z,39.75
2018-03-17T18:42:53.606Z,39.10
2018-03-17T18:45:21.146Z,38.22
2018-03-17T18:47:49.474Z,38.22
2018-03-17T18:50:16.972Z,37.17
2018-03-17T18:52:44.488Z,40.30
2018-03-17T18:55:12.014Z,38.85
2018-03-17T18:57:39.524Z,45.35
2018-03-17T19:00:07.051Z,39.83
2018-03-17T19:02:34.548Z,36.88
2018-03-17T19:05:02.048Z,34.58
2018-03-17T19:07:29.576Z,41.80
2018-03-17T19:09:57.084Z,43.28
2018-03-17T19:12:24.633Z,33.20
2018-03-17T19:14:52.137Z,36.63
2018-03-17T19:17:19.651Z,44.05
2018-03-17T19:19:47.153Z,40.72
2018-03-17T19:22:14.652Z,32.63
2018-03-17T19:24:42.944Z,38.92
2018-03-17T19:27:10.453Z,39.67
2018-03-17T19:29:37.983Z,39.10
2018-03-17T19:32:05.484Z,44.42
2018-03-17T19:34:32.996Z,42.53
2018-03-17T19:37:00.527Z,48.97
2018-03-17T19:39:28.797Z,40.05
2018-03-17T19:41:56.335Z,39.92
2018-03-17T19:44:23.906Z,48.08
2018-03-17T19:46:51.403Z,42.50
2018-03-17T19:49:18.942Z,45.35
2018-03-17T19:51:47.212Z,47.50
2018-03-17T19:54:14.766Z,53.33
2018-03-17T19:56:42.288Z,45.05
2018-03-17T19:59:09.795Z,39.30
2018-03-17T20:01:37.324Z,37.03
2018-03-17T20:04:04.859Z,42.70
2018-03-17T20:06:32.378Z,41.55
2018-03-17T20:09:00.644Z,37.50
2018-03-17T20:11:28.917Z,40.10
2018-03-17T20:13:57.474Z,45.00
2018-03-17T20:16:24.977Z,40.30
2018-03-17T20:18:53.277Z,39.25
2018-03-17T20:21:20.779Z,38.95
2018-03-17T20:23:48.293Z,41.60
2018-03-17T20:26:15.848Z,43.03
2018-03-17T20:28:44.115Z,47.03
2018-03-17T20:31:12.409Z,44.45
2018-03-17T20:33:39.918Z,46.10
2018-03-17T20:36:07.416Z,49.80
2018-03-17T20:38:35.720Z,52.50
2018-03-17T20:41:03.221Z,53.03
2018-03-17T20:43:30.754Z,45.28
2018-03-17T20:45:58.272Z,49.20
2018-03-17T20:48:25.775Z,50.05
2018-03-17T20:50:53.312Z,54.75
2018-03-17T20:53:20.816Z,57.78
2018-03-17T20:55:48.336Z,47.50
2018-03-17T20:58:15.870Z,54.83
2018-03-17T21:00:44.143Z,52.38
2018-03-17T21:03:12.432Z,57.62
2018-03-17T21:05:39.930Z,51.97
2018-03-17T21:08:07.443Z,50.65
2018-03-17T21:10:35.722Z,54.97
2018-03-17T21:13:03.985Z,51.75
2018-03-17T21:15:32.471Z,49.85
2018-03-17T21:18:00.234Z,47.33
2018-03-17T21:20:28.722Z,50.97
2018-03-17T21:22:57.058Z,54.17
2018-03-17T21:25:24.758Z,43.22
2018-03-17T21:27:52.419Z,48.40
2018-03-17T21:30:20.928Z,59.25
2018-03-17T21:32:48.495Z,62.45
2018-03-17T21:35:16.004Z,63.78
2018-03-17T21:37:43.509Z,54.70
2018-03-17T21:40:11.070Z,54.83
2018-03-17T21:42:38.625Z,57.50
2018-03-17T21:45:06.136Z,47.45
2018-03-17T21:47:33.644Z,58.47
2018-03-17T21:50:01.144Z,61.72
2018-03-17T21:52:28.921Z,52.35
2018-03-17T21:54:56.393Z,69.55
2018-03-17T21:57:23.916Z,54.63
2018-03-17T21:59:51.583Z,56.17
2018-03-17T22:02:19.287Z,53.65
2018-03-17T22:04:46.953Z,61.83
2018-03-17T22:07:15.331Z,55.15
2018-03-17T22:09:43.891Z,61.13
2018-03-17T22:12:11.566Z,59.35
2018-03-17T22:14:39.984Z,61.90
2018-03-17T22:17:07.614Z,51.75
2018-03-17T22:19:35.902Z,62.17
2018-03-17T22:22:04.188Z,52.62
2018-03-17T22:24:32.456Z,49.95
2018-03-17T22:27:00.728Z,55.60
2018-03-17T22:29:28.255Z,65.87
2018-03-17T22:31:55.784Z,55.88
2018-03-17T22:34:23.294Z,56.95
2018-03-17T22:36:50.790Z,58.08
2018-03-17T22:39:19.067Z,55.58
2018-03-17T22:41:47.344Z,59.70
2018-03-17T22:44:15.608Z,47.40
2018-03-17T22:46:43.898Z,51.78
2018-03-17T22:49:12.187Z,51.58
2018-03-17T22:51:39.694Z,45.40
2018-03-17T22:54:07.257Z,64.15
2018-03-17T22:56:34.752Z,54.47
2018-03-17T22:59:02.299Z,53.58
2018-03-17T23:01:30.563Z,52.70
2018-03-17T23:03:58.059Z,51.70
2018-03-17T23:06:25.588Z,54.33
2018-03-17T23:08:53.100Z,52.20
2018-03-17T23:11:20.629Z,43.00
2018-03-17T23:13:48.907Z,48.20
2018-03-17T23:16:17.176Z,47.35
2018-03-17T23:18:45.512Z,56.50
2018-03-17T23:21:13.047Z,60.40
2018-03-17T23:23:41.009Z,50.00
2018-03-17T23:26:08.518Z,49.45
2018-03-17T23:28:36.016Z,52.50
2018-03-17T23:31:03.530Z,47.95
2018-03-17T23:33:31.028Z,53.05
2018-03-17T23:35:59.312Z,57.28
2018-03-17T23:38:26.807Z,63.08
2018-03-17T23:40:54.300Z,54.90
2018-03-17T23:43:21.818Z,61.05
2018-03-17T23:45:49.317Z,57.88
2018-03-17T23:48:16.849Z,71.37
2018-03-17T23:50:44.356Z,54.60
2018-03-17T23:53:12.623Z,46.67
2018-03-17T23:55:40.922Z,55.20
2018-03-17T23:58:08.412Z,54.75
